NCAR-RAP Real-Time Weather Data

Output produced by METARs form (06 May 2021  16:03 UTC)
found at http://weather.rap.ucar.edu/surface/
 
KBYG 061553Z AUTO 11007KT 10SM CLR 11/02 A3029 RMK AO2 SLP245 T01110022
KBYG 061453Z AUTO 16003KT 10SM CLR 09/02 A3030 RMK AO2 SLP250 T00890022 58002
KBYG 061353Z AUTO 00000KT 10SM CLR 09/02 A3031 RMK AO2 SLP251 T00890017
KBYG 061253Z AUTO 26004KT 10SM CLR 05/01 A3031 RMK AO2 SLP261 T00500006
KBYG 061153Z AUTO 25006KT 10SM CLR 02/M01 A3031 RMK AO2 SLP260 T00221011 10050 20011 56005
KBYG 061053Z AUTO 25007KT 10SM CLR 03/M01 A3031 RMK AO2 SLP258 T00281011
KBYG 060953Z AUTO 24006KT 10SM CLR 02/M01 A3032 RMK AO2 SLP261 T00221011
KBYG 060853Z AUTO 24004KT 10SM CLR 02/M01 A3033 RMK AO2 SLP264 T00221011 58002
KBYG 060753Z AUTO 28004KT 10SM CLR 03/M01 A3034 RMK AO2 SLP270 T00281011
KBYG 060653Z AUTO 25004KT 10SM BKN034 03/00 A3034 RMK AO2 SLP269 T00330000 401280011
KBYG 060553Z AUTO 25003KT 10SM CLR 04/00 A3033 RMK AO2 SLP266 T00390000 10111 20028 50010
KBYG 060453Z AUTO 23005KT 10SM CLR 03/01 A3033 RMK AO2 SLP267 T00330006
KBYG 060353Z AUTO 25003KT 10SM OVC095 06/02 A3032 RMK AO2 SLP257 T00560017
KBYG 060253Z AUTO 00000KT 10SM SCT060 OVC090 07/02 A3030 RMK AO2 SLP247 T00720022 52011